createdAt,value
2022-10-19T00:02:43.952Z,24.10
2022-10-19T00:07:45.351Z,21.42
2022-10-19T00:12:49.737Z,22.80
2022-10-19T00:17:51.207Z,21.40
2022-10-19T00:22:52.542Z,25.48
2022-10-19T00:27:53.978Z,29.05
2022-10-19T00:32:55.358Z,23.85
2022-10-19T00:37:56.745Z,24.92
2022-10-19T00:42:58.099Z,27.85
2022-10-19T00:47:59.454Z,26.83
2022-10-19T00:53:00.891Z,24.38
2022-10-19T00:58:02.999Z,26.95
2022-10-19T01:03:05.776Z,28.73
2022-10-19T01:08:08.896Z,25.05
2022-10-19T01:13:23.961Z,27.55
2022-10-19T01:18:44.435Z,20.98
2022-10-19T01:24:23.017Z,20.85
2022-10-19T01:30:01.675Z,22.98
2022-10-19T01:35:18.997Z,21.35
2022-10-19T01:40:41.754Z,27.73
2022-10-19T01:46:14.440Z,25.00
2022-10-19T01:51:21.852Z,23.63
2022-10-19T01:56:26.748Z,24.13
2022-10-19T02:01:31.188Z,25.42
2022-10-19T02:06:32.611Z,19.60
2022-10-19T02:11:37.099Z,25.80
2022-10-19T02:16:49.681Z,29.27
2022-10-19T02:21:52.308Z,24.73
2022-10-19T02:26:55.683Z,25.98
2022-10-19T02:31:57.123Z,19.67
2022-10-19T02:36:58.810Z,20.92
2022-10-19T02:42:11.940Z,19.75
2022-10-19T02:47:15.449Z,22.75
2022-10-19T02:52:16.817Z,25.13
2022-10-19T02:57:20.943Z,30.30
2022-10-19T03:02:22.294Z,24.85
2022-10-19T03:07:23.958Z,28.48
2022-10-19T03:12:25.384Z,28.95
2022-10-19T03:17:26.736Z,21.27
2022-10-19T03:22:28.106Z,27.60
2022-10-19T03:27:29.451Z,25.13
2022-10-19T03:32:30.807Z,25.77
2022-10-19T03:37:32.387Z,31.33
2022-10-19T03:42:34.068Z,35.15
2022-10-19T03:47:35.654Z,33.88
2022-10-19T03:52:37.190Z,27.52
2022-10-19T03:57:38.561Z,29.73
2022-10-19T04:02:39.904Z,31.70
2022-10-19T04:07:41.312Z,33.28
2022-10-19T04:12:42.809Z,27.10
2022-10-19T04:17:45.671Z,30.05
2022-10-19T04:22:52.875Z,28.08
2022-10-19T04:27:54.252Z,27.08
2022-10-19T04:32:55.649Z,29.90
2022-10-19T04:37:58.820Z,24.50
2022-10-19T04:43:00.163Z,25.13
2022-10-19T04:48:01.942Z,27.65
2022-10-19T04:53:03.464Z,26.77
2022-10-19T04:58:04.814Z,24.15
2022-10-19T05:03:06.221Z,25.48
2022-10-19T05:08:07.826Z,28.38
2022-10-19T05:13:09.183Z,27.13
2022-10-19T05:18:10.568Z,22.33
2022-10-19T05:23:11.947Z,26.88
2022-10-19T05:28:13.349Z,20.20
2022-10-19T05:33:14.713Z,27.10
2022-10-19T05:38:16.086Z,19.30
2022-10-19T05:43:17.433Z,27.95
2022-10-19T05:48:18.790Z,25.35
2022-10-19T05:53:20.677Z,17.63
2022-10-19T05:58:22.107Z,19.27
2022-10-19T06:03:24.570Z,17.77
2022-10-19T06:08:26.140Z,12.38
2022-10-19T06:13:27.547Z,18.80
2022-10-19T06:18:29.506Z,18.40
2022-10-19T06:23:32.195Z,13.77
2022-10-19T06:28:34.219Z,13.07
2022-10-19T06:33:35.594Z,11.52
2022-10-19T06:38:36.982Z,12.80
2022-10-19T06:43:38.353Z,10.45
2022-10-19T06:48:40.001Z,15.98
2022-10-19T06:53:41.389Z,8.73
2022-10-19T06:58:43.099Z,11.77
2022-10-19T07:03:44.584Z,10.93
2022-10-19T07:08:46.056Z,9.10
2022-10-19T07:13:47.503Z,10.00
2022-10-19T07:18:51.852Z,10.00
2022-10-19T07:23:53.354Z,11.00
2022-10-19T07:28:57.727Z,6.32
2022-10-19T07:34:01.396Z,7.82
2022-10-19T07:39:06.233Z,9.82
2022-10-19T07:44:09.010Z,13.20
2022-10-19T07:49:18.689Z,9.07
2022-10-19T07:54:20.933Z,9.20
2022-10-19T07:59:22.380Z,9.27
2022-10-19T08:09:53.296Z,11.52
2022-10-19T08:14:55.139Z,11.27
2022-10-19T08:19:56.572Z,9.85
2022-10-19T08:24:58.055Z,9.10
2022-10-19T08:29:59.399Z,11.15
2022-10-19T08:35:00.858Z,12.55
2022-10-19T08:40:02.442Z,11.10
2022-10-19T08:45:22.001Z,13.15
2022-10-19T08:50:33.537Z,9.20
2022-10-19T08:56:02.267Z,11.23
2022-10-19T09:01:16.901Z,8.52
2022-10-19T09:06:34.793Z,11.90
2022-10-19T09:11:44.396Z,11.60
2022-10-19T09:16:46.336Z,9.40
2022-10-19T09:21:56.640Z,12.20
2022-10-19T09:27:01.747Z,15.18
2022-10-19T09:32:05.828Z,10.63
2022-10-19T09:37:07.314Z,10.93
2022-10-19T09:42:32.935Z,11.98
2022-10-19T09:47:37.900Z,14.50
2022-10-19T09:52:41.497Z,8.13
2022-10-19T09:57:57.494Z,12.60
2022-10-19T10:02:58.952Z,6.13
2022-10-19T10:08:01.159Z,9.52
2022-10-19T10:13:03.047Z,9.88
2022-10-19T10:18:04.824Z,9.27
2022-10-19T10:23:06.646Z,8.15
2022-10-19T10:28:22.969Z,7.93
2022-10-19T10:33:40.318Z,7.47
2022-10-19T10:38:51.788Z,7.88
2022-10-19T10:44:02.319Z,8.18
2022-10-19T10:49:15.335Z,7.47
2022-10-19T10:54:31.222Z,6.65
2022-10-19T10:59:56.229Z,6.97
2022-10-19T11:05:03.690Z,8.27
2022-10-19T11:10:16.778Z,7.30
2022-10-19T11:20:45.040Z,9.95
2022-10-19T11:26:04.611Z,8.95
2022-10-19T11:31:29.755Z,7.40
2022-10-19T11:37:04.674Z,6.20
2022-10-19T11:42:37.361Z,10.60
2022-10-19T11:47:53.891Z,6.05
2022-10-19T11:53:04.104Z,9.97
2022-10-19T11:58:15.208Z,7.85
2022-10-19T12:03:51.887Z,7.00
2022-10-19T12:09:23.564Z,7.00
2022-10-19T12:14:30.208Z,4.85
2022-10-19T12:19:54.454Z,5.55
2022-10-19T12:25:00.407Z,6.50
2022-10-19T12:30:13.162Z,5.65
2022-10-19T12:35:42.485Z,8.98
2022-10-19T12:41:03.274Z,9.52
2022-10-19T12:46:16.716Z,6.82
2022-10-19T12:51:18.762Z,6.57
2022-10-19T12:56:25.673Z,4.63
2022-10-19T13:01:29.340Z,5.68
2022-10-19T13:06:34.467Z,3.92
2022-10-19T13:11:38.193Z,6.28
2022-10-19T13:16:56.128Z,6.10
2022-10-19T13:22:20.269Z,8.05
2022-10-19T13:27:26.458Z,6.68
2022-10-19T13:32:44.501Z,11.40
2022-10-19T13:37:46.182Z,7.68
2022-10-19T13:42:58.393Z,6.20
2022-10-19T13:48:13.883Z,3.13
2022-10-19T13:53:27.979Z,6.07
2022-10-19T13:58:50.270Z,4.30
2022-10-19T14:04:13.927Z,5.72
2022-10-19T14:09:24.959Z,6.47
2022-10-19T14:14:28.270Z,4.63
2022-10-19T14:19:32.798Z,4.75
2022-10-19T14:24:35.939Z,4.18
2022-10-19T14:29:47.327Z,10.18
2022-10-19T14:34:49.495Z,4.10
2022-10-19T14:40:04.248Z,3.88
2022-10-19T14:45:13.966Z,3.40
2022-10-19T14:50:15.548Z,3.80
2022-10-19T14:55:19.139Z,5.50
2022-10-19T15:00:22.987Z,3.47
2022-10-19T15:05:28.255Z,7.00
2022-10-19T15:10:43.930Z,4.97
2022-10-19T15:15:51.915Z,8.65
2022-10-19T15:21:15.628Z,3.47
2022-10-19T15:26:23.971Z,7.15
2022-10-19T15:31:28.609Z,5.43
2022-10-19T15:36:31.660Z,7.03
2022-10-19T15:41:38.228Z,4.93
2022-10-19T15:46:48.514Z,5.38
2022-10-19T15:51:50.570Z,5.00
2022-10-19T15:56:52.897Z,6.35
2022-10-19T16:01:56.054Z,8.02
2022-10-19T16:06:57.824Z,7.40
2022-10-19T16:11:59.282Z,6.03
2022-10-19T16:17:00.745Z,7.25
2022-10-19T16:22:02.156Z,9.18
2022-10-19T16:27:04.103Z,9.32
2022-10-19T16:32:05.685Z,10.57
2022-10-19T16:37:07.610Z,9.32
2022-10-19T16:42:09.244Z,10.35
2022-10-19T16:47:10.673Z,12.57
2022-10-19T16:52:15.188Z,11.18
2022-10-19T16:57:16.556Z,13.85
2022-10-19T17:02:21.858Z,11.60
2022-10-19T17:07:23.719Z,16.48
2022-10-19T17:12:25.107Z,14.93
2022-10-19T17:17:26.464Z,9.65
2022-10-19T17:22:27.812Z,12.07
2022-10-19T17:27:29.266Z,12.65
2022-10-19T17:32:30.607Z,12.30
2022-10-19T17:37:32.067Z,10.55
2022-10-19T17:42:36.396Z,10.48
2022-10-19T17:47:38.159Z,10.25
2022-10-19T17:52:39.780Z,9.90
2022-10-19T17:57:41.386Z,11.88
2022-10-19T18:02:46.030Z,14.60
2022-10-19T18:07:49.124Z,12.18
2022-10-19T18:12:50.478Z,22.15
2022-10-19T18:17:51.864Z,14.98
2022-10-19T18:22:53.360Z,12.27
2022-10-19T18:27:54.778Z,13.68
2022-10-19T18:32:56.143Z,14.07
2022-10-19T18:37:57.497Z,19.25
2022-10-19T18:42:58.852Z,15.55
2022-10-19T18:48:00.333Z,18.05
2022-10-19T18:53:01.736Z,15.82
2022-10-19T18:58:03.261Z,10.48
2022-10-19T19:03:04.683Z,16.25
2022-10-19T19:08:06.051Z,10.70
2022-10-19T19:13:07.962Z,12.70
2022-10-19T19:18:09.406Z,12.88
2022-10-19T19:23:10.800Z,11.77
2022-10-19T19:28:12.267Z,12.13
2022-10-19T19:33:14.218Z,13.52
2022-10-19T19:38:16.425Z,13.43
2022-10-19T19:43:19.889Z,11.35
2022-10-19T19:48:21.295Z,13.95
2022-10-19T19:53:22.921Z,14.35
2022-10-19T19:58:24.424Z,18.42
2022-10-19T20:03:25.870Z,12.00
2022-10-19T20:08:27.296Z,12.68
2022-10-19T20:13:28.804Z,11.98
2022-10-19T20:18:30.136Z,9.90
2022-10-19T20:23:32.568Z,12.30
2022-10-19T20:28:34.289Z,13.35
2022-10-19T20:33:37.915Z,9.57
2022-10-19T20:38:40.828Z,11.40
2022-10-19T20:43:42.236Z,13.05
2022-10-19T20:48:44.086Z,11.95
2022-10-19T20:53:47.765Z,10.35
2022-10-19T20:59:13.817Z,13.13
2022-10-19T21:04:15.969Z,10.93
2022-10-19T21:09:20.282Z,9.85
2022-10-19T21:14:28.716Z,11.30
2022-10-19T21:19:31.015Z,10.23
2022-10-19T21:24:35.318Z,10.60
2022-10-19T21:29:37.071Z,11.90
2022-10-19T21:34:38.426Z,12.30
2022-10-19T21:39:39.837Z,13.35
2022-10-19T21:44:41.196Z,10.45
2022-10-19T21:49:42.574Z,10.43
2022-10-19T21:54:43.937Z,8.00
2022-10-19T21:59:45.388Z,8.50
2022-10-19T22:04:46.740Z,9.88
2022-10-19T22:09:48.126Z,12.00
2022-10-19T22:14:49.540Z,11.85
2022-10-19T22:19:51.032Z,11.80
2022-10-19T22:24:53.272Z,10.68
2022-10-19T22:29:54.612Z,13.23
2022-10-19T22:34:55.949Z,10.82
2022-10-19T22:39:57.286Z,9.32
2022-10-19T22:44:58.644Z,9.85
2022-10-19T22:50:00.029Z,11.38
2022-10-19T22:55:01.423Z,9.57
2022-10-19T23:00:03.225Z,6.43
2022-10-19T23:05:04.930Z,13.30
2022-10-19T23:10:06.718Z,9.77
2022-10-19T23:15:08.866Z,11.30
2022-10-19T23:20:11.334Z,16.40
2022-10-19T23:25:12.666Z,10.45
2022-10-19T23:30:14.199Z,6.47
2022-10-19T23:35:15.543Z,7.95
2022-10-19T23:40:17.011Z,9.10
2022-10-19T23:45:19.232Z,5.85
2022-10-19T23:50:20.563Z,12.48
2022-10-19T23:55:21.941Z,6.30
